createdAt,value
2019-04-05T00:00:21.186Z,26.40
2019-04-05T00:03:19.023Z,26.40
2019-04-05T00:08:12.236Z,26.50
2019-04-05T00:09:40.050Z,26.50
2019-04-05T00:12:37.774Z,26.50
2019-04-05T00:15:46.384Z,26.60
2019-04-05T00:18:42.569Z,26.60
2019-04-05T00:21:38.829Z,26.70
2019-04-05T00:24:43.231Z,26.70
2019-04-05T00:27:40.230Z,26.70
2019-04-05T00:30:36.443Z,26.70
2019-04-05T00:33:32.734Z,26.80
2019-04-05T00:36:33.105Z,26.80
2019-04-05T00:39:37.869Z,26.80
2019-04-05T00:42:38.585Z,26.90
2019-04-05T00:45:34.720Z,26.90
2019-04-05T00:48:31.222Z,26.90
2019-04-05T00:51:27.705Z,26.90
2019-04-05T00:54:28.731Z,26.90
2019-04-05T00:57:36.975Z,27.00
2019-04-05T01:00:23.792Z,27.00
2019-04-05T01:03:20.220Z,27.00
2019-04-05T01:06:21.625Z,27.00
2019-04-05T01:09:25.519Z,27.10
2019-04-05T01:12:23.712Z,27.10
2019-04-05T01:15:17.280Z,27.10
2019-04-05T01:18:14.869Z,27.20
2019-04-05T01:21:22.630Z,27.20
2019-04-05T01:24:09.841Z,27.20
2019-04-05T01:27:09.043Z,27.20
2019-04-05T01:30:11.469Z,27.30
2019-04-05T01:33:13.014Z,27.30
2019-04-05T01:36:03.915Z,27.30
2019-04-05T01:39:00.242Z,27.30
2019-04-05T01:42:02.388Z,27.40
2019-04-05T01:45:05.378Z,27.40
2019-04-05T01:48:04.852Z,27.40
2019-04-05T01:50:58.938Z,27.40
2019-04-05T01:53:54.780Z,27.40
2019-04-05T01:56:54.492Z,27.50
2019-04-05T01:59:50.979Z,27.50
2019-04-05T02:02:47.172Z,27.50
2019-04-05T02:05:43.961Z,27.60
2019-04-05T02:08:41.286Z,27.60
2019-04-05T02:11:38.091Z,27.60
2019-04-05T02:14:43.205Z,27.70
2019-04-05T02:18:05.174Z,27.70
2019-04-05T02:20:45.056Z,27.70
2019-04-05T02:23:45.669Z,27.70
2019-04-05T02:26:48.967Z,27.70
2019-04-05T02:29:47.476Z,27.60
2019-04-05T02:32:49.974Z,27.70
2019-04-05T02:38:38.949Z,27.70
2019-04-05T02:41:40.666Z,27.70
2019-04-05T02:44:43.415Z,27.70
2019-04-05T02:47:39.615Z,27.70
2019-04-05T02:50:46.256Z,27.70
2019-04-05T02:53:41.422Z,27.70
2019-04-05T02:56:37.522Z,27.70
2019-04-05T02:59:44.314Z,27.80
2019-04-05T03:02:34.160Z,27.70
2019-04-05T03:05:36.316Z,27.70
2019-04-05T03:09:06.600Z,27.70
2019-04-05T03:11:46.727Z,27.80
2019-04-05T03:14:59.941Z,27.80
2019-04-05T03:17:54.365Z,27.80
2019-04-05T03:21:12.962Z,27.80
2019-04-05T03:24:10.439Z,27.80
2019-04-05T03:27:16.910Z,27.90
2019-04-05T03:30:14.808Z,27.90
2019-04-05T03:36:18.773Z,27.90
2019-04-05T03:39:09.548Z,27.90
2019-04-05T03:45:04.622Z,27.90
2019-04-05T03:48:01.627Z,28.00
2019-04-05T03:50:58.388Z,28.00
2019-04-05T03:54:03.242Z,28.00
2019-04-05T03:56:52.432Z,28.00
2019-04-05T03:59:58.576Z,28.10
2019-04-05T04:02:55.937Z,28.10
2019-04-05T04:05:53.291Z,28.10
2019-04-05T04:08:54.285Z,28.10
2019-04-05T04:12:00.309Z,28.10
2019-04-05T04:15:13.325Z,28.10
2019-04-05T04:17:56.731Z,28.10
2019-04-05T04:21:00.985Z,28.10
2019-04-05T04:24:03.591Z,28.10
2019-04-05T04:27:00.629Z,28.10
2019-04-05T04:30:17.414Z,28.10
2019-04-05T04:33:23.515Z,28.10
2019-04-05T04:36:05.152Z,28.20
2019-04-05T04:39:03.093Z,28.20
2019-04-05T04:42:19.012Z,28.10
2019-04-05T04:45:12.446Z,28.10
2019-04-05T04:48:06.869Z,28.10
2019-04-05T04:51:09.597Z,28.00
2019-04-05T04:54:12.024Z,27.90
2019-04-05T04:57:15.046Z,27.80
2019-04-05T05:00:17.929Z,27.70
2019-04-05T05:03:14.651Z,27.70
2019-04-05T05:06:21.815Z,27.50
2019-04-05T05:09:25.028Z,27.60
2019-04-05T05:13:05.139Z,27.70
2019-04-05T05:16:03.798Z,27.70
2019-04-05T05:22:19.307Z,27.90
2019-04-05T05:25:19.072Z,27.90
2019-04-05T05:28:18.637Z,27.90
2019-04-05T05:31:29.723Z,28.00
2019-04-05T05:34:30.424Z,28.00
2019-04-05T05:37:32.970Z,28.10
2019-04-05T05:48:30.858Z,28.10
2019-04-05T05:51:39.215Z,28.20
2019-04-05T05:55:36.322Z,28.10
2019-04-05T05:58:50.973Z,28.00
2019-04-05T06:01:53.898Z,27.80
2019-04-05T06:04:56.506Z,27.80
2019-04-05T06:08:00.913Z,27.80
2019-04-05T06:10:59.289Z,27.70
2019-04-05T06:14:24.613Z,27.70
2019-04-05T06:18:04.146Z,27.70
2019-04-05T06:20:59.804Z,27.70
2019-04-05T06:23:59.758Z,27.70
2019-04-05T06:27:03.565Z,27.70
2019-04-05T06:30:00.833Z,27.60
2019-04-05T06:33:00.455Z,27.60
2019-04-05T06:36:26.766Z,27.60
2019-04-05T06:39:32.290Z,27.60
2019-04-05T06:43:12.135Z,27.60
2019-04-05T06:46:01.695Z,27.50
2019-04-05T06:49:16.403Z,27.60
2019-04-05T06:52:16.063Z,27.50
2019-04-05T06:55:17.009Z,27.60
2019-04-05T06:58:29.082Z,27.60
2019-04-05T07:01:31.763Z,27.60
2019-04-05T07:04:49.744Z,27.60
2019-04-05T07:09:13.031Z,27.50
2019-04-05T07:12:07.673Z,27.60
2019-04-05T07:15:31.950Z,27.60
2019-04-05T07:19:09.713Z,27.60
2019-04-05T07:22:13.099Z,27.60
2019-04-05T07:28:24.898Z,27.60
2019-04-05T07:31:42.655Z,27.60
2019-04-05T07:34:51.219Z,27.60
2019-04-05T07:41:32.318Z,27.60
2019-04-05T07:44:44.935Z,27.60
2019-04-05T07:47:41.917Z,27.70
2019-04-05T07:50:38.454Z,27.70
2019-04-05T07:53:33.535Z,27.70
2019-04-05T07:56:34.929Z,27.60
2019-04-05T07:59:31.218Z,27.70
2019-04-05T08:02:43.030Z,27.70
2019-04-05T08:05:54.663Z,27.70
2019-04-05T08:09:22.873Z,27.70
2019-04-05T08:12:23.403Z,27.70
2019-04-05T08:15:18.618Z,27.70
2019-04-05T08:18:17.959Z,27.70
2019-04-05T08:21:15.873Z,27.70
2019-04-05T08:24:12.720Z,27.70
2019-04-05T08:27:13.275Z,27.70
2019-04-05T08:33:47.662Z,27.60
2019-04-05T08:36:48.993Z,27.60
2019-04-05T08:39:50.589Z,27.50
2019-04-05T08:46:14.006Z,27.50
2019-04-05T08:49:19.507Z,27.50
2019-04-05T08:52:20.348Z,27.50
2019-04-05T08:55:40.677Z,27.40
2019-04-05T08:58:38.719Z,27.40
2019-04-05T09:01:34.742Z,27.40
2019-04-05T09:05:12.089Z,27.50
2019-04-05T09:08:21.315Z,27.50
2019-04-05T09:11:16.459Z,27.50
2019-04-05T09:14:14.360Z,27.60
2019-04-05T09:17:15.685Z,27.60
2019-04-05T09:20:15.703Z,27.70
2019-04-05T09:23:33.159Z,27.70
2019-04-05T09:30:12.974Z,27.70
2019-04-05T09:33:11.284Z,27.60
2019-04-05T09:36:08.672Z,27.60
2019-04-05T09:39:05.894Z,27.60
2019-04-05T09:42:10.425Z,27.60
2019-04-05T09:45:13.163Z,27.60
2019-04-05T09:48:08.911Z,27.70
2019-04-05T09:51:27.379Z,27.70
2019-04-05T09:54:08.953Z,27.60
2019-04-05T09:57:05.748Z,27.50
2019-04-05T10:00:03.086Z,27.50
2019-04-05T10:03:05.368Z,27.40
2019-04-05T10:06:06.620Z,27.40
2019-04-05T10:09:07.216Z,27.50
2019-04-05T10:12:05.119Z,27.50
2019-04-05T10:15:03.032Z,27.50
2019-04-05T10:17:59.918Z,27.50
2019-04-05T10:21:10.633Z,27.60
2019-04-05T10:24:11.520Z,27.60
2019-04-05T10:27:10.830Z,27.60
2019-04-05T10:30:21.429Z,27.50
2019-04-05T10:33:19.682Z,27.40
2019-04-05T10:36:42.415Z,27.50
2019-04-05T10:39:42.735Z,27.50
2019-04-05T10:42:42.996Z,27.40
2019-04-05T10:45:40.554Z,27.50
2019-04-05T10:48:42.021Z,27.50
2019-04-05T10:51:43.555Z,27.40
2019-04-05T10:55:10.675Z,27.50
2019-04-05T10:58:11.491Z,27.50
2019-04-05T11:01:14.279Z,27.70
2019-04-05T11:04:10.171Z,27.70
2019-04-05T11:07:21.373Z,27.80
2019-04-05T11:10:20.715Z,27.90
2019-04-05T11:13:16.849Z,27.90
2019-04-05T11:16:19.162Z,28.00
2019-04-05T11:19:47.321Z,28.10
2019-04-05T11:23:11.884Z,28.10
2019-04-05T11:35:11.411Z,28.20
2019-04-05T11:38:54.167Z,28.30
2019-04-05T11:50:33.604Z,28.40
2019-04-05T12:29:26.946Z,28.50
2019-04-05T12:32:44.165Z,28.70
2019-04-05T12:36:31.138Z,28.70
2019-04-05T12:46:55.959Z,28.60
2019-04-05T12:50:22.655Z,28.70
2019-04-05T12:56:46.352Z,28.80
2019-04-05T12:59:44.745Z,28.80
2019-04-05T13:03:36.388Z,28.80
2019-04-05T13:34:20.593Z,29.00
2019-04-05T13:37:28.560Z,29.00
2019-04-05T13:40:29.574Z,28.90
2019-04-05T13:43:26.239Z,29.00
2019-04-05T13:46:46.177Z,29.00
2019-04-05T13:49:42.838Z,29.00
2019-04-05T13:52:42.296Z,29.00
2019-04-05T13:55:56.482Z,29.00
2019-04-05T13:58:57.396Z,29.00
2019-04-05T14:01:52.136Z,29.00
2019-04-05T14:04:53.929Z,29.00
2019-04-05T14:08:09.178Z,29.00
2019-04-05T14:10:53.325Z,29.00
2019-04-05T14:13:49.600Z,29.00
2019-04-05T14:16:47.130Z,29.00
2019-04-05T14:19:43.733Z,28.90
2019-04-05T14:22:39.411Z,29.00
2019-04-05T14:25:39.643Z,29.00
2019-04-05T14:28:34.905Z,29.00
2019-04-05T14:31:31.586Z,29.00
2019-04-05T14:34:26.782Z,28.90
2019-04-05T14:37:25.020Z,28.90
2019-04-05T14:40:21.506Z,28.90
2019-04-05T14:43:17.509Z,28.90
2019-04-05T14:46:12.325Z,28.90
2019-04-05T14:49:07.519Z,28.90
2019-04-05T14:52:03.785Z,28.90
2019-04-05T14:55:00.061Z,28.90
2019-04-05T14:57:55.787Z,28.90
2019-04-05T15:00:51.435Z,28.90
2019-04-05T15:04:01.911Z,28.90
2019-04-05T15:07:07.848Z,28.90
2019-04-05T15:10:03.835Z,28.90
2019-04-05T15:13:03.773Z,28.90
2019-04-05T15:19:29.739Z,28.90
2019-04-05T15:22:31.869Z,28.90
2019-04-05T15:25:32.098Z,28.90
2019-04-05T15:28:39.376Z,28.90
2019-04-05T15:31:34.551Z,28.90
2019-04-05T15:34:31.776Z,28.80
2019-04-05T15:37:31.599Z,28.80
2019-04-05T15:40:25.646Z,28.90
2019-04-05T15:43:23.072Z,28.90
2019-04-05T15:46:18.127Z,28.90
2019-04-05T15:49:13.186Z,28.90
2019-04-05T15:52:17.979Z,28.90
2019-04-05T15:55:04.639Z,28.80
2019-04-05T15:58:01.473Z,28.80
2019-04-05T16:00:55.911Z,28.80
2019-04-05T16:03:52.466Z,28.80
2019-04-05T16:06:51.142Z,28.80
2019-04-05T16:09:46.114Z,28.80
2019-04-05T16:12:41.102Z,28.80
2019-04-05T16:15:36.147Z,28.80
2019-04-05T16:18:31.686Z,28.80
2019-04-05T16:21:28.559Z,28.80
2019-04-05T16:24:23.547Z,28.90
2019-04-05T16:27:19.039Z,28.90
2019-04-05T16:30:14.639Z,28.80
2019-04-05T16:33:13.028Z,28.80
2019-04-05T16:36:09.570Z,28.80
2019-04-05T16:39:09.302Z,28.80
2019-04-05T16:42:10.065Z,28.80
2019-04-05T16:45:06.930Z,28.80
2019-04-05T16:48:03.911Z,28.80
2019-04-05T16:51:00.102Z,28.80
2019-04-05T16:54:03.254Z,28.80
2019-04-05T16:57:02.249Z,28.80
2019-04-05T16:59:57.004Z,28.80
2019-04-05T17:02:55.128Z,28.80
2019-04-05T17:05:50.190Z,28.80
2019-04-05T17:08:46.130Z,28.80
2019-04-05T17:11:42.651Z,28.80
2019-04-05T17:14:39.378Z,28.80
2019-04-05T17:17:35.135Z,28.80
2019-04-05T17:20:32.223Z,28.80
2019-04-05T17:23:26.874Z,28.80
2019-04-05T17:26:21.678Z,28.80
2019-04-05T17:29:17.501Z,28.80
2019-04-05T17:32:12.608Z,28.80
2019-04-05T17:35:08.199Z,28.80
2019-04-05T17:38:05.239Z,28.90
2019-04-05T17:41:00.812Z,28.80
2019-04-05T17:43:56.742Z,28.90
2019-04-05T17:46:52.274Z,28.90
2019-04-05T17:49:47.713Z,28.80
2019-04-05T17:52:43.915Z,28.80
2019-04-05T17:55:38.793Z,28.80
2019-04-05T17:58:35.350Z,28.80
2019-04-05T18:01:30.585Z,28.80
2019-04-05T18:04:27.172Z,28.80
2019-04-05T18:07:21.903Z,28.80
2019-04-05T18:10:16.945Z,28.80
2019-04-05T18:13:12.056Z,28.80
2019-04-05T18:16:06.933Z,28.80
2019-04-05T18:19:03.619Z,28.80
2019-04-05T18:21:58.807Z,28.80
2019-04-05T18:24:54.003Z,28.80
2019-04-05T18:27:49.039Z,28.80
2019-04-05T18:30:44.455Z,28.80
2019-04-05T18:33:41.506Z,28.90
2019-04-05T18:36:36.603Z,28.80
2019-04-05T18:39:31.718Z,28.80
2019-04-05T18:42:28.453Z,28.80
2019-04-05T18:45:23.725Z,28.80
2019-04-05T18:48:18.945Z,28.90
2019-04-05T18:51:13.889Z,28.90
2019-04-05T18:54:10.186Z,28.80
2019-04-05T18:57:05.050Z,28.80
2019-04-05T19:00:00.137Z,28.80
2019-04-05T19:02:55.148Z,28.80
2019-04-05T19:05:50.092Z,28.80
2019-04-05T19:08:47.693Z,28.80
2019-04-05T19:11:44.361Z,28.80
2019-04-05T19:14:39.548Z,28.80
2019-04-05T19:17:35.038Z,28.80
2019-04-05T19:20:30.307Z,28.80
2019-04-05T19:23:26.229Z,28.90
2019-04-05T19:26:21.787Z,28.80
2019-04-05T19:29:16.824Z,28.80
2019-04-05T19:49:53.225Z,28.90
2019-04-05T19:52:48.340Z,28.90
2019-04-05T19:55:43.306Z,28.90
2019-04-05T19:58:39.300Z,28.90
2019-04-05T20:01:34.347Z,28.90
2019-04-05T20:04:30.607Z,28.90
2019-04-05T20:07:25.761Z,28.90
2019-04-05T20:10:20.946Z,28.90
2019-04-05T20:13:16.072Z,28.80
2019-04-05T20:16:11.420Z,28.90
2019-04-05T20:19:06.324Z,28.90
2019-04-05T20:22:01.666Z,28.90
2019-04-05T20:24:56.857Z,28.90
2019-04-05T20:27:52.846Z,28.90
2019-04-05T20:30:48.513Z,28.90
2019-04-05T20:33:43.817Z,28.90
2019-04-05T20:36:38.703Z,28.90
2019-04-05T20:39:34.193Z,28.80
2019-04-05T20:42:29.116Z,28.90
2019-04-05T20:45:24.615Z,28.80
2019-04-05T20:48:20.112Z,28.90
2019-04-05T20:51:15.888Z,28.90
2019-04-05T20:54:11.076Z,28.90
2019-04-05T20:57:07.115Z,28.90
2019-04-05T21:00:02.481Z,28.90
2019-04-05T21:02:59.084Z,28.90
2019-04-05T21:05:54.060Z,28.90
2019-04-05T21:08:49.258Z,28.90
2019-04-05T21:11:44.559Z,28.90
2019-04-05T21:14:39.661Z,28.90
2019-04-05T21:17:35.182Z,28.90
2019-04-05T21:20:31.317Z,28.90
2019-04-05T21:23:26.524Z,28.90
2019-04-05T21:26:21.848Z,28.90
2019-04-05T21:29:16.731Z,28.80
2019-04-05T21:32:11.828Z,28.80
2019-04-05T21:35:06.817Z,28.90
2019-04-05T21:38:01.652Z,28.90
2019-04-05T21:40:58.399Z,28.80
2019-04-05T21:43:53.404Z,28.90
2019-04-05T21:46:48.277Z,28.80
2019-04-05T21:49:43.157Z,28.90
2019-04-05T21:52:38.370Z,28.90
2019-04-05T21:55:33.366Z,28.80
2019-04-05T21:58:28.713Z,28.80
2019-04-05T22:01:25.009Z,28.90
2019-04-05T22:04:21.402Z,28.80
2019-04-05T22:07:16.449Z,28.80
2019-04-05T22:10:12.570Z,28.80
2019-04-05T22:13:11.077Z,28.80
2019-04-05T22:16:06.372Z,28.80
2019-04-05T22:19:01.269Z,28.80
2019-04-05T22:21:56.615Z,28.80
2019-04-05T22:24:59.155Z,28.80
2019-04-05T22:27:48.819Z,28.80
2019-04-05T22:30:44.018Z,28.80
2019-04-05T22:33:39.201Z,28.80
2019-04-05T22:36:35.504Z,28.70
2019-04-05T22:39:30.556Z,28.80
2019-04-05T22:42:25.847Z,28.80
2019-04-05T22:45:21.197Z,28.80
2019-04-05T22:48:16.668Z,28.80
2019-04-05T22:51:11.729Z,28.80
2019-04-05T22:54:07.463Z,28.80
2019-04-05T22:57:03.413Z,28.80
2019-04-05T22:59:58.200Z,28.80
2019-04-05T23:02:53.584Z,28.80
2019-04-05T23:05:48.677Z,28.80
2019-04-05T23:08:43.823Z,28.80
2019-04-05T23:11:39.076Z,28.80
2019-04-05T23:14:34.537Z,28.80
2019-04-05T23:17:29.674Z,28.80
2019-04-05T23:20:25.004Z,28.70
2019-04-05T23:23:20.201Z,28.70
2019-04-05T23:26:16.569Z,28.70
2019-04-05T23:29:11.812Z,28.70
2019-04-05T23:32:07.035Z,28.70
2019-04-05T23:35:02.341Z,28.70
2019-04-05T23:37:57.999Z,28.70
2019-04-05T23:40:53.260Z,28.70
2019-04-05T23:43:48.564Z,28.60
2019-04-05T23:46:44.010Z,28.60
2019-04-05T23:49:39.722Z,28.70
2019-04-05T23:52:34.553Z,28.70
2019-04-05T23:55:33.559Z,28.60
2019-04-05T23:58:30.897Z,28.60
